sensor_id;sensor_type;location;lat;lon;timestamp;temperature;humidity
22426;DHT22;11380;50.822;15.790;2023-06-14T00:04:22;8.60;1.00
22426;DHT22;11380;50.822;15.790;2023-06-14T00:09:32;8.80;1.00
22426;DHT22;11380;50.822;15.790;2023-06-14T00:19:43;8.90;1.00
22426;DHT22;11380;50.822;15.790;2023-06-14T00:24:51;8.90;18.10
22426;DHT22;11380;50.822;15.790;2023-06-14T00:30:00;8.90;99.90
22426;DHT22;11380;50.822;15.790;2023-06-14T00:35:07;8.80;99.90
22426;DHT22;11380;50.822;15.790;2023-06-14T00:40:14;8.80;99.90
22426;DHT22;11380;50.822;15.790;2023-06-14T00:45:22;8.60;99.90
22426;DHT22;11380;50.822;15.790;2023-06-14T00:50:30;8.30;99.90
22426;DHT22;11380;50.822;15.790;2023-06-14T00:55:38;8.00;99.90
22426;DHT22;11380;50.822;15.790;2023-06-14T01:00:45;8.50;99.90
22426;DHT22;11380;50.822;15.790;2023-06-14T01:05:56;8.60;99.90
22426;DHT22;11380;50.822;15.790;2023-06-14T01:11:18;8.00;99.90
22426;DHT22;11380;50.822;15.790;2023-06-14T01:16:27;8.40;99.90
22426;DHT22;11380;50.822;15.790;2023-06-14T01:21:35;8.50;99.90
22426;DHT22;11380;50.822;15.790;2023-06-14T01:26:44;8.40;99.90
22426;DHT22;11380;50.822;15.790;2023-06-14T01:31:52;8.20;99.90
22426;DHT22;11380;50.822;15.790;2023-06-14T01:37:00;8.20;99.90
22426;DHT22;11380;50.822;15.790;2023-06-14T01:42:08;8.10;99.90
22426;DHT22;11380;50.822;15.790;2023-06-14T01:47:16;8.20;99.90
22426;DHT22;11380;50.822;15.790;2023-06-14T01:52:22;8.20;99.90
22426;DHT22;11380;50.822;15.790;2023-06-14T01:57:29;8.20;99.90
22426;DHT22;11380;50.822;15.790;2023-06-14T02:02:36;8.10;99.90
22426;DHT22;11380;50.822;15.790;2023-06-14T02:07:43;7.90;99.90
22426;DHT22;11380;50.822;15.790;2023-06-14T02:12:51;7.90;99.90
22426;DHT22;11380;50.822;15.790;2023-06-14T02:18:04;7.80;99.90
22426;DHT22;11380;50.822;15.790;2023-06-14T02:23:11;8.10;99.90
22426;DHT22;11380;50.822;15.790;2023-06-14T02:28:18;8.00;99.90
22426;DHT22;11380;50.822;15.790;2023-06-14T02:33:26;7.60;99.90
22426;DHT22;11380;50.822;15.790;2023-06-14T02:38:33;7.70;99.90
22426;DHT22;11380;50.822;15.790;2023-06-14T02:43:41;7.70;99.90
22426;DHT22;11380;50.822;15.790;2023-06-14T02:48:48;7.00;99.90
22426;DHT22;11380;50.822;15.790;2023-06-14T02:53:55;7.30;99.90
22426;DHT22;11380;50.822;15.790;2023-06-14T02:59:02;7.60;99.90
22426;DHT22;11380;50.822;15.790;2023-06-14T03:04:10;7.60;99.90
22426;DHT22;11380;50.822;15.790;2023-06-14T03:09:17;7.30;99.90
22426;DHT22;11380;50.822;15.790;2023-06-14T03:14:26;7.50;99.90
22426;DHT22;11380;50.822;15.790;2023-06-14T03:19:34;6.90;99.90
22426;DHT22;11380;50.822;15.790;2023-06-14T03:24:41;6.70;99.90
22426;DHT22;11380;50.822;15.790;2023-06-14T03:29:50;7.30;99.90
22426;DHT22;11380;50.822;15.790;2023-06-14T03:34:58;7.30;99.90
22426;DHT22;11380;50.822;15.790;2023-06-14T03:40:05;7.60;99.90
22426;DHT22;11380;50.822;15.790;2023-06-14T03:45:13;7.80;99.90
22426;DHT22;11380;50.822;15.790;2023-06-14T03:50:20;7.70;99.90
22426;DHT22;11380;50.822;15.790;2023-06-14T03:55:27;6.90;99.90
22426;DHT22;11380;50.822;15.790;2023-06-14T04:00:38;7.40;99.90
22426;DHT22;11380;50.822;15.790;2023-06-14T04:05:46;7.60;99.90
22426;DHT22;11380;50.822;15.790;2023-06-14T04:10:54;7.70;99.90
22426;DHT22;11380;50.822;15.790;2023-06-14T04:16:01;7.90;99.90
22426;DHT22;11380;50.822;15.790;2023-06-14T04:21:09;8.40;99.90
22426;DHT22;11380;50.822;15.790;2023-06-14T04:26:16;9.00;99.90
22426;DHT22;11380;50.822;15.790;2023-06-14T04:31:26;9.20;99.90
22426;DHT22;11380;50.822;15.790;2023-06-14T04:36:35;9.10;99.90
22426;DHT22;11380;50.822;15.790;2023-06-14T04:41:42;8.90;99.90
22426;DHT22;11380;50.822;15.790;2023-06-14T04:46:49;9.50;99.90
22426;DHT22;11380;50.822;15.790;2023-06-14T04:51:57;9.60;99.90
22426;DHT22;11380;50.822;15.790;2023-06-14T04:57:07;9.80;99.90
22426;DHT22;11380;50.822;15.790;2023-06-14T05:02:16;9.40;99.90
22426;DHT22;11380;50.822;15.790;2023-06-14T05:07:25;10.10;99.90
22426;DHT22;11380;50.822;15.790;2023-06-14T05:12:33;10.70;99.90
22426;DHT22;11380;50.822;15.790;2023-06-14T05:17:46;11.00;99.90
22426;DHT22;11380;50.822;15.790;2023-06-14T05:22:54;11.40;99.90
22426;DHT22;11380;50.822;15.790;2023-06-14T05:28:06;11.40;99.90
22426;DHT22;11380;50.822;15.790;2023-06-14T05:33:13;11.60;99.90
22426;DHT22;11380;50.822;15.790;2023-06-14T05:38:20;11.60;99.90
22426;DHT22;11380;50.822;15.790;2023-06-14T05:43:27;11.60;99.90
22426;DHT22;11380;50.822;15.790;2023-06-14T05:48:34;11.80;99.90
22426;DHT22;11380;50.822;15.790;2023-06-14T05:53:41;11.90;99.90
22426;DHT22;11380;50.822;15.790;2023-06-14T05:58:48;12.10;99.90
22426;DHT22;11380;50.822;15.790;2023-06-14T06:03:55;12.10;99.90
22426;DHT22;11380;50.822;15.790;2023-06-14T06:09:03;11.70;99.90
22426;DHT22;11380;50.822;15.790;2023-06-14T06:14:09;11.70;99.90
22426;DHT22;11380;50.822;15.790;2023-06-14T06:19:15;11.70;99.90
22426;DHT22;11380;50.822;15.790;2023-06-14T06:24:23;11.70;99.90
22426;DHT22;11380;50.822;15.790;2023-06-14T06:29:30;12.00;99.90
22426;DHT22;11380;50.822;15.790;2023-06-14T06:34:38;12.30;99.90
22426;DHT22;11380;50.822;15.790;2023-06-14T06:39:44;12.30;99.90
22426;DHT22;11380;50.822;15.790;2023-06-14T06:44:52;12.50;99.90
22426;DHT22;11380;50.822;15.790;2023-06-14T06:49:59;12.70;99.90
22426;DHT22;11380;50.822;15.790;2023-06-14T06:55:07;13.10;98.60
22426;DHT22;11380;50.822;15.790;2023-06-14T07:00:20;13.50;71.30
22426;DHT22;11380;50.822;15.790;2023-06-14T07:05:30;13.60;99.90
22426;DHT22;11380;50.822;15.790;2023-06-14T07:10:37;13.80;21.40
22426;DHT22;11380;50.822;15.790;2023-06-14T07:15:44;13.70;70.10
22426;DHT22;11380;50.822;15.790;2023-06-14T07:20:53;13.90;56.30
22426;DHT22;11380;50.822;15.790;2023-06-14T07:26:01;13.80;1.00
22426;DHT22;11380;50.822;15.790;2023-06-14T07:31:07;14.50;1.00
22426;DHT22;11380;50.822;15.790;2023-06-14T07:36:13;15.00;1.00
22426;DHT22;11380;50.822;15.790;2023-06-14T07:41:20;15.40;1.00
22426;DHT22;11380;50.822;15.790;2023-06-14T07:46:27;15.40;1.00
22426;DHT22;11380;50.822;15.790;2023-06-14T07:51:33;16.10;1.00
22426;DHT22;11380;50.822;15.790;2023-06-14T07:56:40;16.50;1.00
22426;DHT22;11380;50.822;15.790;2023-06-14T08:01:49;16.00;1.00
22426;DHT22;11380;50.822;15.790;2023-06-14T08:06:55;16.10;1.00
22426;DHT22;11380;50.822;15.790;2023-06-14T08:12:02;16.30;1.00
22426;DHT22;11380;50.822;15.790;2023-06-14T08:17:12;16.10;1.00
22426;DHT22;11380;50.822;15.790;2023-06-14T08:22:19;16.50;1.00
22426;DHT22;11380;50.822;15.790;2023-06-14T08:27:27;15.90;1.00
22426;DHT22;11380;50.822;15.790;2023-06-14T08:32:35;17.10;1.00
22426;DHT22;11380;50.822;15.790;2023-06-14T08:37:42;17.90;1.00
22426;DHT22;11380;50.822;15.790;2023-06-14T08:42:54;17.90;1.00
22426;DHT22;11380;50.822;15.790;2023-06-14T08:48:01;16.80;1.00
22426;DHT22;11380;50.822;15.790;2023-06-14T08:53:11;15.90;99.90
22426;DHT22;11380;50.822;15.790;2023-06-14T08:58:21;15.90;99.90
22426;DHT22;11380;50.822;15.790;2023-06-14T09:03:29;15.80;99.90
22426;DHT22;11380;50.822;15.790;2023-06-14T09:08:43;16.00;99.90
22426;DHT22;11380;50.822;15.790;2023-06-14T09:13:49;16.10;99.90
22426;DHT22;11380;50.822;15.790;2023-06-14T09:18:56;15.90;99.90
22426;DHT22;11380;50.822;15.790;2023-06-14T09:24:04;16.10;99.90
22426;DHT22;11380;50.822;15.790;2023-06-14T09:29:12;15.80;99.90
22426;DHT22;11380;50.822;15.790;2023-06-14T09:34:20;15.60;99.90
22426;DHT22;11380;50.822;15.790;2023-06-14T09:39:28;15.40;99.90
22426;DHT22;11380;50.822;15.790;2023-06-14T09:44:35;15.10;99.90
22426;DHT22;11380;50.822;15.790;2023-06-14T09:49:43;15.10;99.90
22426;DHT22;11380;50.822;15.790;2023-06-14T09:54:50;15.60;99.90
22426;DHT22;11380;50.822;15.790;2023-06-14T10:00:00;15.40;99.90
22426;DHT22;11380;50.822;15.790;2023-06-14T10:05:12;15.80;99.90
22426;DHT22;11380;50.822;15.790;2023-06-14T10:10:22;15.80;99.90
22426;DHT22;11380;50.822;15.790;2023-06-14T10:15:35;15.90;99.90
22426;DHT22;11380;50.822;15.790;2023-06-14T10:26:23;16.20;99.90
22426;DHT22;11380;50.822;15.790;2023-06-14T10:31:46;16.50;99.90
22426;DHT22;11380;50.822;15.790;2023-06-14T10:37:11;16.50;99.90
22426;DHT22;11380;50.822;15.790;2023-06-14T10:42:12;16.80;99.90
22426;DHT22;11380;50.822;15.790;2023-06-14T10:47:31;17.00;99.90
22426;DHT22;11380;50.822;15.790;2023-06-14T10:52:43;17.00;99.90
22426;DHT22;11380;50.822;15.790;2023-06-14T10:57:55;17.00;99.90
22426;DHT22;11380;50.822;15.790;2023-06-14T11:14:21;17.80;99.90
22426;DHT22;11380;50.822;15.790;2023-06-14T11:19:27;17.50;99.90
22426;DHT22;11380;50.822;15.790;2023-06-14T11:24:35;18.40;99.90
22426;DHT22;11380;50.822;15.790;2023-06-14T11:29:48;18.20;99.90
22426;DHT22;11380;50.822;15.790;2023-06-14T11:34:55;18.10;1.00
22426;DHT22;11380;50.822;15.790;2023-06-14T11:40:04;17.90;1.00
22426;DHT22;11380;50.822;15.790;2023-06-14T11:45:15;17.80;1.00
22426;DHT22;11380;50.822;15.790;2023-06-14T11:50:23;18.30;1.00
22426;DHT22;11380;50.822;15.790;2023-06-14T11:55:29;18.80;1.00
22426;DHT22;11380;50.822;15.790;2023-06-14T12:00:37;18.30;99.90
22426;DHT22;11380;50.822;15.790;2023-06-14T12:05:45;17.80;99.90
22426;DHT22;11380;50.822;15.790;2023-06-14T12:10:52;17.50;99.90
22426;DHT22;11380;50.822;15.790;2023-06-14T12:16:02;17.60;99.90
22426;DHT22;11380;50.822;15.790;2023-06-14T12:21:09;18.40;99.90
22426;DHT22;11380;50.822;15.790;2023-06-14T12:26:17;18.40;99.90
22426;DHT22;11380;50.822;15.790;2023-06-14T12:31:27;18.00;99.90
22426;DHT22;11380;50.822;15.790;2023-06-14T12:36:34;17.80;99.90
22426;DHT22;11380;50.822;15.790;2023-06-14T12:41:43;17.80;99.90
22426;DHT22;11380;50.822;15.790;2023-06-14T12:46:50;18.30;99.90
22426;DHT22;11380;50.822;15.790;2023-06-14T12:51:59;19.50;99.90
22426;DHT22;11380;50.822;15.790;2023-06-14T12:57:06;19.90;1.00
22426;DHT22;11380;50.822;15.790;2023-06-14T13:02:18;19.90;1.00
22426;DHT22;11380;50.822;15.790;2023-06-14T13:07:28;19.10;1.00
22426;DHT22;11380;50.822;15.790;2023-06-14T13:12:35;18.80;1.00
22426;DHT22;11380;50.822;15.790;2023-06-14T13:17:41;18.80;1.00
22426;DHT22;11380;50.822;15.790;2023-06-14T13:22:50;18.60;1.00
22426;DHT22;11380;50.822;15.790;2023-06-14T13:27:57;18.20;1.00
22426;DHT22;11380;50.822;15.790;2023-06-14T13:33:04;18.00;1.00
22426;DHT22;11380;50.822;15.790;2023-06-14T13:38:11;17.60;1.00
22426;DHT22;11380;50.822;15.790;2023-06-14T13:43:20;16.10;61.10
22426;DHT22;11380;50.822;15.790;2023-06-14T13:48:28;14.90;1.00
22426;DHT22;11380;50.822;15.790;2023-06-14T13:53:35;14.70;1.00
22426;DHT22;11380;50.822;15.790;2023-06-14T13:58:43;15.10;1.00
22426;DHT22;11380;50.822;15.790;2023-06-14T14:03:50;15.40;1.00
22426;DHT22;11380;50.822;15.790;2023-06-14T14:08:57;15.50;1.00
22426;DHT22;11380;50.822;15.790;2023-06-14T14:14:04;16.00;1.00
22426;DHT22;11380;50.822;15.790;2023-06-14T14:19:11;16.80;1.00
22426;DHT22;11380;50.822;15.790;2023-06-14T14:24:18;15.90;1.00
22426;DHT22;11380;50.822;15.790;2023-06-14T14:29:27;16.10;1.00
22426;DHT22;11380;50.822;15.790;2023-06-14T14:34:37;16.00;1.00
22426;DHT22;11380;50.822;15.790;2023-06-14T14:39:44;16.70;1.00
22426;DHT22;11380;50.822;15.790;2023-06-14T14:44:52;16.80;67.50
22426;DHT22;11380;50.822;15.790;2023-06-14T14:49:59;17.40;90.30
22426;DHT22;11380;50.822;15.790;2023-06-14T14:55:06;17.00;87.20
22426;DHT22;11380;50.822;15.790;2023-06-14T15:00:14;17.20;99.90
22426;DHT22;11380;50.822;15.790;2023-06-14T15:05:22;17.00;99.90
22426;DHT22;11380;50.822;15.790;2023-06-14T15:10:29;17.00;96.30
22426;DHT22;11380;50.822;15.790;2023-06-14T15:15:37;16.90;94.80
22426;DHT22;11380;50.822;15.790;2023-06-14T15:20:44;17.00;42.60
22426;DHT22;11380;50.822;15.790;2023-06-14T15:25:51;17.10;75.70
22426;DHT22;11380;50.822;15.790;2023-06-14T15:30:59;17.20;84.80
22426;DHT22;11380;50.822;15.790;2023-06-14T15:36:06;17.00;77.70
22426;DHT22;11380;50.822;15.790;2023-06-14T15:41:14;17.20;40.90
22426;DHT22;11380;50.822;15.790;2023-06-14T15:46:22;17.20;99.90
22426;DHT22;11380;50.822;15.790;2023-06-14T15:51:29;17.10;68.70
22426;DHT22;11380;50.822;15.790;2023-06-14T15:56:35;17.10;70.60
22426;DHT22;11380;50.822;15.790;2023-06-14T16:01:41;17.30;70.30
22426;DHT22;11380;50.822;15.790;2023-06-14T16:06:48;17.30;67.90
22426;DHT22;11380;50.822;15.790;2023-06-14T16:11:55;17.10;58.00
22426;DHT22;11380;50.822;15.790;2023-06-14T16:17:02;17.00;57.70
22426;DHT22;11380;50.822;15.790;2023-06-14T16:22:09;17.10;83.60
22426;DHT22;11380;50.822;15.790;2023-06-14T16:27:16;16.90;91.00
22426;DHT22;11380;50.822;15.790;2023-06-14T16:32:24;16.80;99.00
22426;DHT22;11380;50.822;15.790;2023-06-14T16:37:30;16.70;75.50
22426;DHT22;11380;50.822;15.790;2023-06-14T16:42:37;16.90;71.10
22426;DHT22;11380;50.822;15.790;2023-06-14T16:47:45;16.70;1.00
22426;DHT22;11380;50.822;15.790;2023-06-14T16:52:52;16.70;28.80
22426;DHT22;11380;50.822;15.790;2023-06-14T16:58:03;16.70;64.40
22426;DHT22;11380;50.822;15.790;2023-06-14T17:03:10;16.70;45.60
22426;DHT22;11380;50.822;15.790;2023-06-14T17:08:17;16.60;65.40
22426;DHT22;11380;50.822;15.790;2023-06-14T17:13:25;16.70;19.40
22426;DHT22;11380;50.822;15.790;2023-06-14T17:18:34;16.60;56.10
22426;DHT22;11380;50.822;15.790;2023-06-14T17:23:42;16.70;40.60
22426;DHT22;11380;50.822;15.790;2023-06-14T17:28:50;16.80;41.60
22426;DHT22;11380;50.822;15.790;2023-06-14T17:33:58;16.60;44.30
22426;DHT22;11380;50.822;15.790;2023-06-14T17:39:05;16.60;49.60
22426;DHT22;11380;50.822;15.790;2023-06-14T17:44:14;16.40;68.20
22426;DHT22;11380;50.822;15.790;2023-06-14T17:49:21;16.30;72.70
22426;DHT22;11380;50.822;15.790;2023-06-14T17:54:29;16.30;48.00
22426;DHT22;11380;50.822;15.790;2023-06-14T17:59:37;16.40;1.00
22426;DHT22;11380;50.822;15.790;2023-06-14T18:04:44;16.10;1.00
22426;DHT22;11380;50.822;15.790;2023-06-14T18:09:50;15.90;1.00
22426;DHT22;11380;50.822;15.790;2023-06-14T18:14:57;15.90;1.00
22426;DHT22;11380;50.822;15.790;2023-06-14T18:20:06;15.70;1.00
22426;DHT22;11380;50.822;15.790;2023-06-14T18:25:14;15.70;1.00
22426;DHT22;11380;50.822;15.790;2023-06-14T18:30:23;15.60;1.00
22426;DHT22;11380;50.822;15.790;2023-06-14T18:35:31;15.60;1.00
22426;DHT22;11380;50.822;15.790;2023-06-14T18:40:38;15.70;1.00
22426;DHT22;11380;50.822;15.790;2023-06-14T18:45:45;15.60;1.00
22426;DHT22;11380;50.822;15.790;2023-06-14T18:50:52;15.80;1.00
22426;DHT22;11380;50.822;15.790;2023-06-14T18:56:00;15.30;1.00
22426;DHT22;11380;50.822;15.790;2023-06-14T19:01:07;15.20;1.00
22426;DHT22;11380;50.822;15.790;2023-06-14T19:06:14;14.80;1.00
22426;DHT22;11380;50.822;15.790;2023-06-14T19:11:22;14.90;1.00
22426;DHT22;11380;50.822;15.790;2023-06-14T19:16:29;14.80;1.00
22426;DHT22;11380;50.822;15.790;2023-06-14T19:21:37;14.60;1.00
22426;DHT22;11380;50.822;15.790;2023-06-14T19:26:44;14.30;17.60
22426;DHT22;11380;50.822;15.790;2023-06-14T19:31:51;14.30;1.00
22426;DHT22;11380;50.822;15.790;2023-06-14T19:36:59;13.90;4.70
22426;DHT22;11380;50.822;15.790;2023-06-14T19:42:07;13.70;1.00
22426;DHT22;11380;50.822;15.790;2023-06-14T19:47:14;13.80;1.00
22426;DHT22;11380;50.822;15.790;2023-06-14T19:52:22;13.50;9.70
22426;DHT22;11380;50.822;15.790;2023-06-14T19:57:30;13.50;6.80
22426;DHT22;11380;50.822;15.790;2023-06-14T20:02:38;13.60;1.00
22426;DHT22;11380;50.822;15.790;2023-06-14T20:07:46;13.40;1.00
22426;DHT22;11380;50.822;15.790;2023-06-14T20:12:53;13.20;1.00
22426;DHT22;11380;50.822;15.790;2023-06-14T20:18:02;13.20;1.00
22426;DHT22;11380;50.822;15.790;2023-06-14T20:23:09;13.10;1.00
22426;DHT22;11380;50.822;15.790;2023-06-14T20:28:15;12.60;52.70
22426;DHT22;11380;50.822;15.790;2023-06-14T20:33:22;12.70;48.70
22426;DHT22;11380;50.822;15.790;2023-06-14T20:38:29;12.60;36.80
22426;DHT22;11380;50.822;15.790;2023-06-14T20:43:35;12.70;20.40
22426;DHT22;11380;50.822;15.790;2023-06-14T20:48:43;12.40;6.20
22426;DHT22;11380;50.822;15.790;2023-06-14T20:53:50;12.40;16.20
22426;DHT22;11380;50.822;15.790;2023-06-14T20:58:58;11.90;11.40
22426;DHT22;11380;50.822;15.790;2023-06-14T21:04:05;12.10;23.80
22426;DHT22;11380;50.822;15.790;2023-06-14T21:09:13;11.90;1.00
22426;DHT22;11380;50.822;15.790;2023-06-14T21:14:20;11.80;1.00
22426;DHT22;11380;50.822;15.790;2023-06-14T21:19:27;11.40;40.50
22426;DHT22;11380;50.822;15.790;2023-06-14T21:24:34;11.60;40.40
22426;DHT22;11380;50.822;15.790;2023-06-14T21:29:41;11.80;1.00
22426;DHT22;11380;50.822;15.790;2023-06-14T21:34:49;11.80;1.00
22426;DHT22;11380;50.822;15.790;2023-06-14T21:39:57;11.70;1.00
22426;DHT22;11380;50.822;15.790;2023-06-14T21:45:07;11.60;1.00
22426;DHT22;11380;50.822;15.790;2023-06-14T21:50:15;11.60;1.00
22426;DHT22;11380;50.822;15.790;2023-06-14T21:55:22;11.40;1.00
22426;DHT22;11380;50.822;15.790;2023-06-14T22:00:30;11.50;6.80
22426;DHT22;11380;50.822;15.790;2023-06-14T22:05:38;11.60;1.00
22426;DHT22;11380;50.822;15.790;2023-06-14T22:10:45;11.20;1.00
22426;DHT22;11380;50.822;15.790;2023-06-14T22:19:19;11.30;1.00
22426;DHT22;11380;50.822;15.790;2023-06-14T22:24:27;11.20;1.00
22426;DHT22;11380;50.822;15.790;2023-06-14T22:29:34;11.10;1.00
22426;DHT22;11380;50.822;15.790;2023-06-14T22:34:42;11.00;1.00
22426;DHT22;11380;50.822;15.790;2023-06-14T22:39:49;10.90;1.00
22426;DHT22;11380;50.822;15.790;2023-06-14T22:44:57;11.00;1.00
22426;DHT22;11380;50.822;15.790;2023-06-14T22:50:07;10.70;1.00
22426;DHT22;11380;50.822;15.790;2023-06-14T22:55:15;10.70;13.00
22426;DHT22;11380;50.822;15.790;2023-06-14T23:00:23;10.60;1.00
22426;DHT22;11380;50.822;15.790;2023-06-14T23:05:30;10.50;1.00
22426;DHT22;11380;50.822;15.790;2023-06-14T23:10:37;10.50;1.00
22426;DHT22;11380;50.822;15.790;2023-06-14T23:15:45;10.40;1.00
22426;DHT22;11380;50.822;15.790;2023-06-14T23:20:53;10.40;1.00
22426;DHT22;11380;50.822;15.790;2023-06-14T23:26:02;10.30;1.00
22426;DHT22;11380;50.822;15.790;2023-06-14T23:31:12;9.70;93.30
22426;DHT22;11380;50.822;15.790;2023-06-14T23:36:20;9.90;99.90
22426;DHT22;11380;50.822;15.790;2023-06-14T23:41:29;10.00;1.80
22426;DHT22;11380;50.822;15.790;2023-06-14T23:46:37;9.90;9.00
22426;DHT22;11380;50.822;15.790;2023-06-14T23:51:46;9.90;29.30
22426;DHT22;11380;50.822;15.790;2023-06-14T23:56:54;9.90;44.80
